Time;durP1;ratioP1;P1;durP2;ratioP2;P2;SDS_P1;SDS_P2;PMS_P1;PMS_P2;Temp;Humidity;BMP_temperature;BMP_pressure;BME280_temperature;BME280_humidity;BME280_pressure;Samples;Min_cycle;Max_cycle;Signal;HPM_P1;HPM_P2
2021/09/05 00:01:14;;;;;;;41.47;18.90;;;;;;;;;;5052085;28;20017;-87
2021/09/05 00:03:39;;;;;;;45.15;18.98;;;;;;;;;;5051964;28;20048;-86
2021/09/05 00:06:04;;;;;;;40.92;18.45;;;;;;;;;;5051461;28;20100;-87
2021/09/05 00:08:29;;;;;;;45.10;18.33;;;;;;;;;;5051327;28;20478;-87
2021/09/05 00:10:55;;;;;;;47.20;18.95;;;;;;;;;;5052967;28;20480;-87
2021/09/05 00:13:20;;;;;;;41.30;18.23;;;;;;;;;;5052917;28;20649;-87
2021/09/05 00:15:46;;;;;;;42.20;17.73;;;;;;;;;;5051865;28;20013;-87
2021/09/05 00:18:11;;;;;;;44.50;19.83;;;;;;;;;;5052947;28;20017;-87
2021/09/05 00:20:36;;;;;;;41.38;17.95;;;;;;;;;;5052795;28;20021;-87
2021/09/05 00:23:03;;;;;;;41.17;19.52;;;;;;;;;;5051453;28;20013;-86
2021/09/05 00:25:29;;;;;;;41.15;18.58;;;;;;;;;;5052560;28;20039;-87
2021/09/05 00:27:54;;;;;;;43.50;18.83;;;;;;;;;;5051633;28;20017;-87
2021/09/05 00:30:19;;;;;;;44.88;18.48;;;;;;;;;;5051345;28;20029;-87
2021/09/05 00:32:45;;;;;;;46.10;19.42;;;;;;;;;;5051636;28;20464;-87
2021/09/05 00:35:10;;;;;;;43.28;18.15;;;;;;;;;;5051263;28;20028;-86
2021/09/05 00:37:35;;;;;;;39.20;17.92;;;;;;;;;;5084810;28;20037;-86
2021/09/05 00:40:00;;;;;;;47.15;20.10;;;;;;;;;;5051404;28;20024;-87
2021/09/05 00:42:26;;;;;;;44.13;18.58;;;;;;;;;;5051284;28;20013;-87
2021/09/05 00:44:52;;;;;;;43.10;18.83;;;;;;;;;;5051265;28;20029;-87
2021/09/05 00:47:17;;;;;;;47.17;19.20;;;;;;;;;;5052357;28;20033;-87
2021/09/05 00:49:43;;;;;;;43.53;18.67;;;;;;;;;;5051247;28;20029;-86
2021/09/05 00:52:08;;;;;;;43.80;18.17;;;;;;;;;;5052928;28;20017;-87
2021/09/05 00:54:34;;;;;;;38.17;17.55;;;;;;;;;;5050962;28;20021;-87
2021/09/05 00:56:59;;;;;;;41.40;18.70;;;;;;;;;;5051040;28;20024;-87
2021/09/05 00:59:24;;;;;;;42.65;18.33;;;;;;;;;;5050811;28;20036;-87
2021/09/05 01:01:49;;;;;;;38.80;18.38;;;;;;;;;;5050960;28;20071;-87
2021/09/05 01:04:15;;;;;;;41.45;17.80;;;;;;;;;;5052643;28;20021;-87
2021/09/05 01:06:40;;;;;;;45.38;17.90;;;;;;;;;;5050983;28;20460;-87
2021/09/05 01:09:06;;;;;;;41.20;19.13;;;;;;;;;;5051218;28;20017;-86
2021/09/05 01:11:32;;;;;;;46.22;19.35;;;;;;;;;;5052558;28;20013;-86
2021/09/05 01:13:58;;;;;;;45.03;18.75;;;;;;;;;;5050993;28;20025;-86
2021/09/05 01:16:28;;;;;;;39.20;16.55;;;;;;;;;;5051230;28;20032;-86
2021/09/05 01:18:53;;;;;;;38.70;18.15;;;;;;;;;;5051030;28;20013;-87
2021/09/05 01:21:19;;;;;;;42.65;18.90;;;;;;;;;;5054829;28;20028;-87
2021/09/05 01:23:44;;;;;;;45.97;18.42;;;;;;;;;;5055992;28;20368;-86
2021/09/05 01:26:12;;;;;;;40.35;17.33;;;;;;;;;;5054830;28;20013;-87
2021/09/05 01:28:37;;;;;;;41.67;18.70;;;;;;;;;;5054383;28;20033;-87
2021/09/05 01:31:02;;;;;;;42.05;18.63;;;;;;;;;;5054613;28;20036;-86
2021/09/05 01:33:27;;;;;;;42.42;18.02;;;;;;;;;;5054980;28;20099;-85
2021/09/05 01:35:52;;;;;;;40.05;17.58;;;;;;;;;;5054380;28;20676;-86
2021/09/05 01:38:18;;;;;;;45.22;18.63;;;;;;;;;;5055658;28;20027;-87
2021/09/05 01:40:43;;;;;;;47.25;19.38;;;;;;;;;;5054587;28;20025;-86
2021/09/05 01:43:08;;;;;;;44.72;18.17;;;;;;;;;;5054223;28;20017;-87
2021/09/05 01:45:33;;;;;;;43.97;18.30;;;;;;;;;;5055584;28;20028;-87
2021/09/05 01:47:58;;;;;;;43.35;19.10;;;;;;;;;;5054329;28;20031;-87
2021/09/05 01:50:24;;;;;;;41.85;17.98;;;;;;;;;;5055599;28;20024;-86
2021/09/05 01:52:49;;;;;;;44.00;19.75;;;;;;;;;;5053943;28;20021;-87
2021/09/05 01:55:14;;;;;;;42.15;18.08;;;;;;;;;;5054231;28;20016;-87
2021/09/05 01:57:39;;;;;;;41.05;17.95;;;;;;;;;;5054136;28;20635;-87
2021/09/05 02:00:05;;;;;;;41.42;18.10;;;;;;;;;;5055293;28;20025;-86
2021/09/05 02:02:31;;;;;;;41.42;19.27;;;;;;;;;;5055508;28;20024;-86
2021/09/05 02:04:56;;;;;;;42.58;19.02;;;;;;;;;;5054053;28;20376;-86
2021/09/05 02:07:22;;;;;;;42.92;18.00;;;;;;;;;;5054020;28;20025;-87
2021/09/05 02:09:47;;;;;;;46.35;19.30;;;;;;;;;;5055307;28;20033;-87
2021/09/05 02:12:12;;;;;;;44.03;19.25;;;;;;;;;;5053923;28;20381;-86
2021/09/05 02:14:37;;;;;;;47.85;19.80;;;;;;;;;;5054200;28;20032;-87
2021/09/05 02:17:02;;;;;;;47.53;19.92;;;;;;;;;;5053347;28;21994;-86
2021/09/05 02:19:29;;;;;;;53.13;19.73;;;;;;;;;;5055313;28;20107;-87
2021/09/05 02:21:54;;;;;;;49.08;19.67;;;;;;;;;;5053484;28;20036;-87
2021/09/05 02:24:19;;;;;;;42.47;19.10;;;;;;;;;;5054891;28;20013;-87
2021/09/05 02:26:44;;;;;;;44.50;18.52;;;;;;;;;;5054014;28;20468;-87
2021/09/05 02:29:09;;;;;;;43.63;17.95;;;;;;;;;;5087222;28;20024;-87
2021/09/05 02:31:35;;;;;;;44.90;18.77;;;;;;;;;;5086995;28;20013;-87
2021/09/05 02:34:00;;;;;;;50.33;19.02;;;;;;;;;;5087267;28;20017;-86
2021/09/05 02:36:26;;;;;;;42.45;18.92;;;;;;;;;;5054555;28;20036;-86
2021/09/05 02:38:51;;;;;;;46.92;19.80;;;;;;;;;;5052924;28;20029;-87
2021/09/05 02:41:16;;;;;;;43.88;18.00;;;;;;;;;;5053428;28;20016;-87
2021/09/05 02:43:42;;;;;;;41.10;18.40;;;;;;;;;;5086989;28;20020;-87
2021/09/05 02:46:07;;;;;;;41.53;17.27;;;;;;;;;;5087221;28;20507;-87
2021/09/05 02:48:32;;;;;;;38.40;17.52;;;;;;;;;;5053077;28;20032;-87
2021/09/05 02:50:57;;;;;;;40.03;16.35;;;;;;;;;;5054590;28;20060;-86
2021/09/05 02:53:22;;;;;;;37.45;16.35;;;;;;;;;;5086769;28;20021;-87
2021/09/05 02:55:48;;;;;;;43.58;17.52;;;;;;;;;;5086826;28;20472;-87
2021/09/05 02:58:13;;;;;;;39.50;17.08;;;;;;;;;;5053014;28;20440;-86
2021/09/05 03:00:38;;;;;;;44.33;17.83;;;;;;;;;;5086595;28;20112;-87
2021/09/05 03:03:03;;;;;;;40.80;16.70;;;;;;;;;;5054505;28;20059;-87
2021/09/05 03:05:28;;;;;;;39.03;16.27;;;;;;;;;;5054313;28;20017;-87
2021/09/05 03:07:53;;;;;;;40.85;17.55;;;;;;;;;;5083563;28;20031;-87
2021/09/05 03:10:19;;;;;;;41.80;18.17;;;;;;;;;;5052950;28;20025;-87
2021/09/05 03:12:44;;;;;;;42.42;16.40;;;;;;;;;;5052633;28;20021;-86
2021/09/05 03:15:09;;;;;;;39.40;15.82;;;;;;;;;;5086561;28;20535;-87
2021/09/05 03:17:34;;;;;;;38.47;16.42;;;;;;;;;;5053987;28;20076;-87
2021/09/05 03:20:00;;;;;;;37.25;16.40;;;;;;;;;;5086380;28;20040;-86
2021/09/05 03:22:25;;;;;;;38.90;17.02;;;;;;;;;;5086059;28;20025;-86
2021/09/05 03:24:50;;;;;;;34.20;15.57;;;;;;;;;;5086199;28;20024;-87
2021/09/05 03:27:15;;;;;;;41.35;17.42;;;;;;;;;;5053748;28;20028;-86
2021/09/05 03:29:41;;;;;;;42.25;17.17;;;;;;;;;;5053571;28;20087;-86
2021/09/05 03:32:06;;;;;;;41.22;18.08;;;;;;;;;;5085724;28;20017;-86
2021/09/05 03:34:31;;;;;;;39.70;17.88;;;;;;;;;;5052418;28;20039;-87
2021/09/05 03:36:56;;;;;;;38.78;17.17;;;;;;;;;;5086006;28;20212;-86
2021/09/05 03:39:22;;;;;;;38.58;16.25;;;;;;;;;;5086180;28;20104;-87
2021/09/05 03:41:47;;;;;;;36.15;15.73;;;;;;;;;;5052351;28;20017;-87
2021/09/05 03:44:12;;;;;;;37.97;16.38;;;;;;;;;;5053243;28;20017;-86
2021/09/05 03:46:37;;;;;;;34.08;15.60;;;;;;;;;;5085425;28;20029;-87
2021/09/05 03:49:02;;;;;;;35.50;15.43;;;;;;;;;;5085892;28;20506;-87
2021/09/05 03:51:28;;;;;;;36.97;16.08;;;;;;;;;;5085575;28;20029;-86
2021/09/05 03:53:53;;;;;;;32.15;16.05;;;;;;;;;;5052152;28;20017;-86
2021/09/05 03:56:18;;;;;;;39.53;16.42;;;;;;;;;;5085581;28;20472;-87
2021/09/05 03:58:43;;;;;;;39.10;16.55;;;;;;;;;;5051684;28;20017;-86
2021/09/05 04:01:09;;;;;;;35.65;15.93;;;;;;;;;;5085645;28;20017;-86
2021/09/05 04:03:34;;;;;;;33.25;15.93;;;;;;;;;;5051608;28;20017;-86
2021/09/05 04:05:59;;;;;;;31.95;15.18;;;;;;;;;;5085521;28;20487;-86
2021/09/05 04:08:38;;;;;;;34.97;16.55;;;;;;;;;;5053114;28;20053;-86
2021/09/05 04:11:03;;;;;;;33.10;15.43;;;;;;;;;;5040943;28;20358;-86
2021/09/05 04:13:28;;;;;;;36.95;14.93;;;;;;;;;;5084740;28;20029;-86
2021/09/05 04:15:53;;;;;;;37.20;15.13;;;;;;;;;;5051757;28;20388;-86
2021/09/05 04:18:18;;;;;;;39.17;16.33;;;;;;;;;;5085450;28;20472;-86
2021/09/05 04:20:44;;;;;;;31.75;14.75;;;;;;;;;;5085164;28;20020;-86
2021/09/05 04:23:09;;;;;;;36.05;16.33;;;;;;;;;;5052949;28;20027;-86
2021/09/05 04:25:34;;;;;;;40.28;16.63;;;;;;;;;;5052961;28;20413;-86
2021/09/05 04:27:59;;;;;;;36.38;16.30;;;;;;;;;;5085362;28;20020;-86
2021/09/05 04:30:24;;;;;;;34.92;16.27;;;;;;;;;;5085044;28;20017;-87
2021/09/05 04:32:51;;;;;;;34.88;16.38;;;;;;;;;;5085047;28;20087;-86
2021/09/05 04:35:16;;;;;;;34.65;15.82;;;;;;;;;;5085054;28;20380;-86
2021/09/05 04:37:41;;;;;;;39.90;16.70;;;;;;;;;;5084889;28;20029;-87
2021/09/05 04:40:07;;;;;;;40.45;16.40;;;;;;;;;;5052629;28;20021;-86
2021/09/05 04:42:33;;;;;;;36.38;16.27;;;;;;;;;;5051432;28;20013;-86
2021/09/05 04:44:59;;;;;;;40.20;16.30;;;;;;;;;;5077444;28;20025;-86
2021/09/05 04:47:24;;;;;;;32.28;14.95;;;;;;;;;;5051590;28;20017;-86
2021/09/05 04:49:49;;;;;;;35.45;15.73;;;;;;;;;;5085096;28;20476;-86
2021/09/05 04:52:14;;;;;;;38.78;15.43;;;;;;;;;;5085145;28;20039;-86
2021/09/05 04:54:40;;;;;;;34.22;15.05;;;;;;;;;;5085159;28;20036;-86
2021/09/05 04:57:05;;;;;;;35.33;15.88;;;;;;;;;;5088319;28;20036;-86
2021/09/05 04:59:31;;;;;;;33.90;15.85;;;;;;;;;;5056931;28;20411;-86
2021/09/05 05:01:56;;;;;;;39.33;16.60;;;;;;;;;;5088727;28;20017;-87
2021/09/05 05:04:21;;;;;;;35.65;15.98;;;;;;;;;;5088967;28;20025;-87
2021/09/05 05:06:46;;;;;;;36.42;15.75;;;;;;;;;;5055375;28;20100;-86
2021/09/05 05:09:12;;;;;;;35.47;16.05;;;;;;;;;;5054593;28;20485;-86
2021/09/05 05:11:42;;;;;;;30.90;15.27;;;;;;;;;;5055222;28;20039;-86
2021/09/05 05:14:07;;;;;;;33.72;14.75;;;;;;;;;;5088397;28;20021;-86
2021/09/05 05:16:33;;;;;;;34.55;15.20;;;;;;;;;;5088799;28;20465;-86
2021/09/05 05:18:58;;;;;;;36.70;15.57;;;;;;;;;;5056254;28;20067;-86
2021/09/05 05:21:26;;;;;;;31.67;15.23;;;;;;;;;;5088497;28;20029;-86
2021/09/05 05:23:52;;;;;;;35.05;15.25;;;;;;;;;;5056009;28;20376;-86
2021/09/05 05:26:17;;;;;;;34.63;15.05;;;;;;;;;;5088679;28;20100;-86
2021/09/05 05:28:42;;;;;;;34.50;15.85;;;;;;;;;;5088410;28;20052;-86
2021/09/05 05:31:07;;;;;;;35.58;16.15;;;;;;;;;;5088169;28;20106;-86
2021/09/05 05:33:33;;;;;;;38.03;16.15;;;;;;;;;;5054966;28;20025;-86
2021/09/05 05:35:59;;;;;;;35.92;16.33;;;;;;;;;;5088358;28;20025;-86
2021/09/05 05:38:24;;;;;;;35.08;15.38;;;;;;;;;;5053935;28;20021;-86
2021/09/05 05:40:49;;;;;;;38.65;15.10;;;;;;;;;;5055588;28;20027;-86
2021/09/05 05:43:15;;;;;;;32.50;15.80;;;;;;;;;;5054429;28;20005;-86
2021/09/05 05:45:41;;;;;;;39.55;15.82;;;;;;;;;;5088374;28;20021;-86
2021/09/05 05:48:06;;;;;;;36.97;16.02;;;;;;;;;;5087709;28;20535;-86
2021/09/05 05:50:31;;;;;;;37.40;16.20;;;;;;;;;;5054699;28;20025;-87
2021/09/05 05:52:57;;;;;;;35.38;15.45;;;;;;;;;;5087016;28;20029;-87
2021/09/05 05:55:22;;;;;;;37.40;15.82;;;;;;;;;;5086423;28;20075;-87
2021/09/05 05:57:47;;;;;;;37.92;15.25;;;;;;;;;;5086770;28;20033;-87
2021/09/05 06:00:13;;;;;;;38.28;15.82;;;;;;;;;;5086587;28;20032;-86
2021/09/05 06:02:38;;;;;;;33.70;15.80;;;;;;;;;;5054380;28;20024;-86
2021/09/05 06:05:03;;;;;;;39.85;16.73;;;;;;;;;;5084983;28;20017;-86
2021/09/05 06:07:29;;;;;;;36.95;16.05;;;;;;;;;;5086080;28;20488;-87
2021/09/05 06:09:54;;;;;;;37.80;16.35;;;;;;;;;;5053012;28;20021;-86
2021/09/05 06:12:19;;;;;;;39.67;16.65;;;;;;;;;;5086237;28;20040;-86
2021/09/05 06:14:45;;;;;;;33.95;15.90;;;;;;;;;;5054452;28;20075;-87
2021/09/05 06:17:10;;;;;;;38.22;16.65;;;;;;;;;;5086285;28;20413;-86
2021/09/05 06:19:35;;;;;;;38.42;15.93;;;;;;;;;;5086522;28;20024;-87
2021/09/05 06:22:00;;;;;;;35.08;15.52;;;;;;;;;;5086726;28;20025;-86
2021/09/05 06:24:26;;;;;;;35.35;16.15;;;;;;;;;;5086004;28;20419;-86
2021/09/05 06:26:51;;;;;;;34.47;15.55;;;;;;;;;;5079276;28;20033;-86
2021/09/05 06:29:16;;;;;;;35.78;16.48;;;;;;;;;;5052699;28;20445;-86
2021/09/05 06:31:41;;;;;;;38.88;16.95;;;;;;;;;;5053873;28;20016;-86
2021/09/05 06:34:06;;;;;;;37.97;16.13;;;;;;;;;;5086087;28;20078;-86
2021/09/05 06:36:32;;;;;;;33.17;16.10;;;;;;;;;;5086025;28;20013;-86
2021/09/05 06:38:57;;;;;;;40.10;17.67;;;;;;;;;;5053757;28;20422;-86
2021/09/05 06:41:22;;;;;;;39.17;18.15;;;;;;;;;;5086153;28;20017;-86
2021/09/05 06:43:48;;;;;;;42.78;17.23;;;;;;;;;;5052654;28;20526;-86
2021/09/05 06:46:13;;;;;;;37.97;16.65;;;;;;;;;;5086086;28;20487;-86
2021/09/05 06:48:39;;;;;;;39.63;16.63;;;;;;;;;;5009309;28;1117372;-87
2021/09/05 06:51:04;;;;;;;36.05;16.80;;;;;;;;;;5046143;28;20468;-87
2021/09/05 06:53:29;;;;;;;37.10;17.10;;;;;;;;;;5086799;28;20108;-86
2021/09/05 06:55:54;;;;;;;36.80;17.35;;;;;;;;;;5053198;28;20403;-86
2021/09/05 06:58:19;;;;;;;38.83;17.95;;;;;;;;;;5084345;28;20033;-87
2021/09/05 07:00:45;;;;;;;39.58;16.98;;;;;;;;;;5085193;28;20024;-87
2021/09/05 07:03:10;;;;;;;39.22;17.67;;;;;;;;;;5052987;28;20353;-86
2021/09/05 07:05:35;;;;;;;38.83;18.13;;;;;;;;;;5085172;28;20465;-86
2021/09/05 07:08:00;;;;;;;40.45;18.30;;;;;;;;;;5053001;28;20025;-87
2021/09/05 07:10:26;;;;;;;39.72;17.92;;;;;;;;;;5054032;28;20490;-87
2021/09/05 07:12:51;;;;;;;41.05;19.00;;;;;;;;;;5054708;28;20090;-87
2021/09/05 07:15:16;;;;;;;41.60;17.92;;;;;;;;;;5046493;28;20067;-87
2021/09/05 07:17:42;;;;;;;34.17;15.85;;;;;;;;;;5083659;28;20472;-87
2021/09/05 07:20:07;;;;;;;40.25;18.13;;;;;;;;;;5082456;28;20013;-87
2021/09/05 07:22:33;;;;;;;41.97;19.67;;;;;;;;;;5050986;28;20021;-87
2021/09/05 07:24:59;;;;;;;43.15;17.70;;;;;;;;;;5050723;28;20036;-87
2021/09/05 07:27:26;;;;;;;39.83;18.60;;;;;;;;;;5051540;28;20017;-87
2021/09/05 07:29:51;;;;;;;43.95;18.45;;;;;;;;;;5053559;28;20035;-87
2021/09/05 07:32:16;;;;;;;43.78;18.23;;;;;;;;;;5052331;28;20104;-87
2021/09/05 07:34:41;;;;;;;39.55;17.85;;;;;;;;;;5086171;28;20055;-86
2021/09/05 07:37:06;;;;;;;41.70;19.52;;;;;;;;;;5085665;28;20292;-86
2021/09/05 07:39:32;;;;;;;42.95;17.48;;;;;;;;;;5050666;28;20051;-86
2021/09/05 07:41:57;;;;;;;40.40;18.08;;;;;;;;;;5051177;28;20365;-87
2021/09/05 07:44:23;;;;;;;38.33;18.42;;;;;;;;;;5052257;28;20032;-87
2021/09/05 07:46:48;;;;;;;41.97;19.08;;;;;;;;;;5050693;28;20457;-87
2021/09/05 07:49:13;;;;;;;37.95;15.95;;;;;;;;;;5052715;28;20044;-87
2021/09/05 07:51:38;;;;;;;41.97;17.27;;;;;;;;;;5083615;28;20037;-87
2021/09/05 07:54:04;;;;;;;31.67;15.25;;;;;;;;;;5084077;28;20028;-87
2021/09/05 07:56:29;;;;;;;42.80;19.00;;;;;;;;;;5051947;28;20086;-87
2021/09/05 07:58:54;;;;;;;44.28;18.48;;;;;;;;;;5046634;28;20029;-87
2021/09/05 08:01:19;;;;;;;39.17;17.67;;;;;;;;;;5043463;28;20021;-87
2021/09/05 08:03:44;;;;;;;45.10;19.10;;;;;;;;;;5051919;28;20021;-87
2021/09/05 08:06:10;;;;;;;46.50;20.33;;;;;;;;;;5085213;28;20406;-87
2021/09/05 08:08:36;;;;;;;49.20;20.75;;;;;;;;;;5051902;28;20066;-87
2021/09/05 08:11:04;;;;;;;42.70;19.00;;;;;;;;;;5052751;28;20021;-87
2021/09/05 08:13:29;;;;;;;43.88;19.10;;;;;;;;;;5050837;28;20392;-87
2021/09/05 08:16:00;;;;;;;43.22;20.55;;;;;;;;;;5050053;28;20024;-87
2021/09/05 08:18:25;;;;;;;41.92;17.63;;;;;;;;;;5050303;28;20017;-87
2021/09/05 08:20:50;;;;;;;45.65;19.80;;;;;;;;;;5046414;28;20029;-88
2021/09/05 08:23:18;;;;;;;48.67;20.83;;;;;;;;;;5052726;28;20480;-87
2021/09/05 08:25:43;;;;;;;51.13;21.40;;;;;;;;;;5050468;28;20083;-87
2021/09/05 08:28:10;;;;;;;42.45;17.38;;;;;;;;;;5049364;28;20033;-88
2021/09/05 08:30:47;;;;;;;51.97;21.02;;;;;;;;;;5050677;28;20464;-87
2021/09/05 08:33:12;;;;;;;49.90;19.67;;;;;;;;;;5050035;28;20033;-87
2021/09/05 08:35:37;;;;;;;48.67;20.70;;;;;;;;;;5052851;28;20121;-88
2021/09/05 08:38:03;;;;;;;48.33;21.80;;;;;;;;;;5084515;28;20429;-87
2021/09/05 08:40:28;;;;;;;49.80;22.15;;;;;;;;;;5049361;28;20025;-87
2021/09/05 08:42:53;;;;;;;53.70;21.58;;;;;;;;;;5052757;28;20025;-86
2021/09/05 08:45:19;;;;;;;46.78;19.25;;;;;;;;;;5044661;28;20028;-88
2021/09/05 08:47:44;;;;;;;53.67;21.08;;;;;;;;;;5051320;28;20021;-87
2021/09/05 08:50:09;;;;;;;52.15;20.25;;;;;;;;;;5077163;28;20476;-87
2021/09/05 08:52:35;;;;;;;52.28;19.40;;;;;;;;;;5082551;28;20116;-87
2021/09/05 08:55:01;;;;;;;55.42;22.00;;;;;;;;;;5050632;28;20388;-87
2021/09/05 08:57:26;;;;;;;49.78;20.23;;;;;;;;;;5073286;28;20025;-87
2021/09/05 08:59:51;;;;;;;53.08;20.80;;;;;;;;;;5051202;28;20021;-88
2021/09/05 09:02:16;;;;;;;48.22;20.23;;;;;;;;;;5084010;28;20092;-88
2021/09/05 09:04:42;;;;;;;46.38;19.92;;;;;;;;;;5083229;28;20116;-87
2021/09/05 09:07:09;;;;;;;55.05;20.45;;;;;;;;;;5084873;28;20059;-87
2021/09/05 09:09:35;;;;;;;49.70;20.45;;;;;;;;;;5084901;28;20017;-87
2021/09/05 09:12:00;;;;;;;45.30;19.23;;;;;;;;;;5051473;28;20431;-87
2021/09/05 09:14:39;;;;;;;46.85;20.27;;;;;;;;;;5079669;28;20478;-88
2021/09/05 09:17:05;;;;;;;53.47;21.58;;;;;;;;;;5046509;28;20075;-87
2021/09/05 09:19:30;;;;;;;46.53;20.50;;;;;;;;;;5051298;28;20025;-87
2021/09/05 09:21:55;;;;;;;46.45;19.98;;;;;;;;;;5084917;28;20377;-87
2021/09/05 09:24:22;;;;;;;49.80;20.80;;;;;;;;;;5084446;28;20487;-87
2021/09/05 09:27:05;;;;;;;44.88;18.33;;;;;;;;;;5084399;28;20021;-87
2021/09/05 09:29:31;;;;;;;47.33;20.63;;;;;;;;;;5052098;28;20376;-88
2021/09/05 09:31:58;;;;;;;53.88;19.08;;;;;;;;;;5084700;28;20096;-87
2021/09/05 09:34:23;;;;;;;52.75;19.92;;;;;;;;;;5084444;28;20139;-87
2021/09/05 09:36:54;;;;;;;53.70;20.33;;;;;;;;;;5050954;28;20507;-87
2021/09/05 09:39:19;;;;;;;46.45;19.30;;;;;;;;;;5051721;28;20080;-84
2021/09/05 09:41:44;;;;;;;47.03;19.85;;;;;;;;;;5052525;28;20031;-84
2021/09/05 09:44:13;;;;;;;50.38;20.75;;;;;;;;;;5047933;28;20031;-84
2021/09/05 09:46:39;;;;;;;43.25;19.30;;;;;;;;;;5052368;28;20053;-84
2021/09/05 09:49:05;;;;;;;49.45;20.02;;;;;;;;;;5051549;28;20740;-84
2021/09/05 09:51:31;;;;;;;43.85;16.85;;;;;;;;;;5053272;28;20472;-84
2021/09/05 09:53:56;;;;;;;41.63;17.88;;;;;;;;;;5077121;28;20037;-84
2021/09/05 09:56:21;;;;;;;41.60;18.70;;;;;;;;;;5052665;28;20032;-84
2021/09/05 09:58:48;;;;;;;48.00;18.55;;;;;;;;;;5049227;28;20460;-84
2021/09/05 10:01:15;;;;;;;44.95;18.80;;;;;;;;;;5084689;28;20116;-84
2021/09/05 10:03:41;;;;;;;42.05;18.25;;;;;;;;;;5051264;28;20029;-84
2021/09/05 10:06:06;;;;;;;51.40;18.90;;;;;;;;;;5078422;28;20020;-85
2021/09/05 10:08:33;;;;;;;42.88;17.52;;;;;;;;;;5052527;28;20043;-84
2021/09/05 10:10:59;;;;;;;45.25;19.60;;;;;;;;;;5050997;28;20029;-84
2021/09/05 10:13:28;;;;;;;43.55;20.63;;;;;;;;;;5051711;28;20032;-84
2021/09/05 10:15:54;;;;;;;45.53;20.58;;;;;;;;;;5050538;28;20036;-84
2021/09/05 10:18:19;;;;;;;47.75;18.38;;;;;;;;;;5053085;28;20036;-84
2021/09/05 10:20:44;;;;;;;39.78;17.27;;;;;;;;;;5051226;28;20384;-84
2021/09/05 10:23:12;;;;;;;40.75;17.85;;;;;;;;;;5052743;28;20528;-84
2021/09/05 10:25:38;;;;;;;41.97;17.50;;;;;;;;;;5052905;28;20388;-84
2021/09/05 10:28:05;;;;;;;42.15;16.83;;;;;;;;;;5083630;28;20021;-84
2021/09/05 10:30:30;;;;;;;45.28;18.95;;;;;;;;;;5046914;28;20033;-84
2021/09/05 10:32:55;;;;;;;41.00;18.20;;;;;;;;;;5048522;28;20032;-84
2021/09/05 10:35:26;;;;;;;38.40;17.63;;;;;;;;;;5086659;28;20040;-84
2021/09/05 10:38:20;;;;;;;39.15;16.63;;;;;;;;;;5083522;28;20026;-84
2021/09/05 10:40:46;;;;;;;40.08;16.30;;;;;;;;;;5052067;28;20051;-84
2021/09/05 10:43:12;;;;;;;41.55;16.88;;;;;;;;;;5046811;28;20075;-84
2021/09/05 10:45:38;;;;;;;41.45;18.52;;;;;;;;;;5048644;28;20579;-84
2021/09/05 10:48:24;;;;;;;40.75;15.70;;;;;;;;;;5047718;28;20024;-84
2021/09/05 10:50:49;;;;;;;32.35;14.35;;;;;;;;;;5047445;28;20033;-85
2021/09/05 10:53:16;;;;;;;37.83;16.88;;;;;;;;;;5051500;28;20079;-84
2021/09/05 10:56:00;;;;;;;46.13;19.92;;;;;;;;;;5053623;28;20020;-84
2021/09/05 10:58:33;;;;;;;31.38;14.80;;;;;;;;;;5052133;28;20541;-85
2021/09/05 11:01:22;;;;;;;43.28;17.63;;;;;;;;;;5050954;28;20023;-85
2021/09/05 11:04:06;;;;;;;41.90;16.77;;;;;;;;;;5052717;28;20082;-84
2021/09/05 11:06:35;;;;;;;41.78;16.38;;;;;;;;;;5046407;28;20009;-84
2021/09/05 11:09:19;;;;;;;36.92;14.07;;;;;;;;;;5052722;28;20049;-85
2021/09/05 11:11:56;;;;;;;40.00;16.08;;;;;;;;;;5052271;28;20760;-84
2021/09/05 11:14:48;;;;;;;38.40;17.77;;;;;;;;;;5044917;28;20021;-84
2021/09/05 11:17:14;;;;;;;41.15;17.95;;;;;;;;;;5051381;28;20029;-84
2021/09/05 11:19:46;;;;;;;37.47;15.65;;;;;;;;;;5052150;28;20079;-84
2021/09/05 11:22:12;;;;;;;32.97;14.18;;;;;;;;;;5050717;28;20045;-84
2021/09/05 11:24:39;;;;;;;37.70;14.45;;;;;;;;;;5052365;28;20040;-84
2021/09/05 11:27:06;;;;;;;44.47;18.95;;;;;;;;;;5051452;28;20415;-84
2021/09/05 11:29:32;;;;;;;44.75;17.90;;;;;;;;;;5052365;28;20051;-84
2021/09/05 11:32:00;;;;;;;34.47;16.33;;;;;;;;;;5052871;28;20029;-84
2021/09/05 11:34:26;;;;;;;34.72;14.55;;;;;;;;;;5052378;28;20025;-84
2021/09/05 11:36:51;;;;;;;40.45;17.23;;;;;;;;;;5053390;28;20025;-84
2021/09/05 11:39:16;;;;;;;37.80;15.82;;;;;;;;;;5051561;28;20049;-84
2021/09/05 11:41:42;;;;;;;44.95;17.80;;;;;;;;;;5053084;28;20017;-84
2021/09/05 11:44:07;;;;;;;35.28;15.45;;;;;;;;;;5084745;28;20070;-85
2021/09/05 11:46:32;;;;;;;35.83;16.65;;;;;;;;;;5051672;28;20017;-84
2021/09/05 11:48:58;;;;;;;34.40;17.30;;;;;;;;;;5079015;28;20025;-84
2021/09/05 11:51:24;;;;;;;35.70;15.43;;;;;;;;;;5049334;28;20115;-84
2021/09/05 11:53:59;;;;;;;38.00;17.77;;;;;;;;;;5052061;28;20504;-84
2021/09/05 11:56:25;;;;;;;37.88;16.58;;;;;;;;;;5052020;28;20056;-84
2021/09/05 11:58:50;;;;;;;36.10;16.05;;;;;;;;;;5046527;28;20029;-84
2021/09/05 12:01:15;;;;;;;40.65;18.35;;;;;;;;;;5051421;28;20028;-85
2021/09/05 12:03:40;;;;;;;35.40;16.95;;;;;;;;;;5051957;28;20016;-85
2021/09/05 12:06:10;;;;;;;29.15;12.68;;;;;;;;;;5051091;28;20013;-84
2021/09/05 12:08:35;;;;;;;32.22;14.95;;;;;;;;;;5051356;28;20021;-84
2021/09/05 12:11:05;;;;;;;29.10;13.20;;;;;;;;;;5051454;28;20120;-84
2021/09/05 12:13:45;;;;;;;27.25;12.48;;;;;;;;;;5053679;28;20104;-84
2021/09/05 12:16:18;;;;;;;29.67;13.35;;;;;;;;;;5042053;28;20032;-85
2021/09/05 12:18:57;;;;;;;30.48;14.52;;;;;;;;;;5051094;28;20078;-84
2021/09/05 12:21:28;;;;;;;27.15;12.77;;;;;;;;;;5085074;28;20044;-84
2021/09/05 12:23:53;;;;;;;26.08;13.25;;;;;;;;;;5052268;28;20017;-84
2021/09/05 12:26:18;;;;;;;25.63;11.90;;;;;;;;;;5083783;28;20028;-85
2021/09/05 12:28:55;;;;;;;25.42;12.20;;;;;;;;;;5043436;28;20029;-84
2021/09/05 12:31:36;;;;;;;25.13;11.40;;;;;;;;;;5051616;28;20021;-84
2021/09/05 12:34:01;;;;;;;23.63;12.77;;;;;;;;;;5080882;28;20066;-84
2021/09/05 12:36:26;;;;;;;24.95;12.50;;;;;;;;;;5052774;28;20017;-84
2021/09/05 12:38:52;;;;;;;26.42;11.35;;;;;;;;;;5052103;28;20032;-84
2021/09/05 12:41:18;;;;;;;22.60;11.70;;;;;;;;;;5050017;28;20028;-84
2021/09/05 12:43:46;;;;;;;23.42;10.57;;;;;;;;;;5048210;28;20166;-84
2021/09/05 12:46:12;;;;;;;26.30;11.07;;;;;;;;;;5050205;28;20133;-85
2021/09/05 12:48:38;;;;;;;23.05;10.80;;;;;;;;;;5052426;28;20052;-85
2021/09/05 12:51:05;;;;;;;23.40;12.23;;;;;;;;;;5081248;28;20020;-84
2021/09/05 12:53:30;;;;;;;21.85;10.45;;;;;;;;;;5059773;28;20024;-84
2021/09/05 12:55:55;;;;;;;21.67;9.88;;;;;;;;;;5051866;28;20063;-85
2021/09/05 12:58:20;;;;;;;21.20;9.23;;;;;;;;;;5051301;28;20021;-84
2021/09/05 13:00:46;;;;;;;19.70;9.02;;;;;;;;;;5049387;28;20021;-84
2021/09/05 13:03:11;;;;;;;17.00;8.63;;;;;;;;;;5051484;28;20416;-84
2021/09/05 13:05:36;;;;;;;16.10;7.53;;;;;;;;;;5042533;28;20044;-85
2021/09/05 13:08:02;;;;;;;16.83;8.55;;;;;;;;;;5050582;28;20032;-84
2021/09/05 13:10:29;;;;;;;14.52;7.82;;;;;;;;;;5049696;28;20021;-84
2021/09/05 13:12:55;;;;;;;19.15;9.07;;;;;;;;;;5048191;28;20088;-84
2021/09/05 13:15:20;;;;;;;20.08;8.98;;;;;;;;;;5048971;28;20067;-84
2021/09/05 13:17:45;;;;;;;17.02;8.18;;;;;;;;;;5053038;28;20384;-84
2021/09/05 13:20:11;;;;;;;16.35;7.70;;;;;;;;;;5055509;28;20060;-84
2021/09/05 13:22:36;;;;;;;25.83;10.63;;;;;;;;;;5053903;28;20047;-84
2021/09/05 13:25:01;;;;;;;16.80;8.85;;;;;;;;;;5086220;28;20462;-84
2021/09/05 13:27:27;;;;;;;17.52;7.85;;;;;;;;;;5055601;28;20535;-84
2021/09/05 13:29:52;;;;;;;17.40;8.70;;;;;;;;;;5054637;28;20104;-84
2021/09/05 13:32:17;;;;;;;19.13;8.75;;;;;;;;;;5054849;28;20048;-84
2021/09/05 13:34:42;;;;;;;22.08;9.85;;;;;;;;;;5055427;28;20024;-84
2021/09/05 13:37:09;;;;;;;21.02;9.18;;;;;;;;;;5055249;28;20021;-84
2021/09/05 13:39:34;;;;;;;16.33;9.13;;;;;;;;;;5054140;28;20029;-84
2021/09/05 13:41:59;;;;;;;14.32;8.10;;;;;;;;;;5051911;28;20021;-84
2021/09/05 13:44:24;;;;;;;13.50;7.43;;;;;;;;;;5054789;28;20036;-84
2021/09/05 13:46:49;;;;;;;19.52;8.90;;;;;;;;;;5055176;28;20017;-84
2021/09/05 13:49:14;;;;;;;18.08;8.45;;;;;;;;;;5054779;28;20111;-84
2021/09/05 13:51:40;;;;;;;13.55;7.53;;;;;;;;;;5055069;28;20392;-84
2021/09/05 13:54:06;;;;;;;16.90;8.48;;;;;;;;;;5053175;28;20023;-84
2021/09/05 13:56:31;;;;;;;18.73;8.80;;;;;;;;;;5054009;28;20107;-84
2021/09/05 13:58:56;;;;;;;12.70;7.45;;;;;;;;;;5048389;28;20017;-84
2021/09/05 14:01:21;;;;;;;15.43;8.32;;;;;;;;;;5054815;28;20024;-84
2021/09/05 14:03:47;;;;;;;16.05;8.45;;;;;;;;;;5055346;28;20013;-84
2021/09/05 14:06:14;;;;;;;20.58;9.48;;;;;;;;;;5053858;28;20013;-84
2021/09/05 14:08:39;;;;;;;15.43;8.82;;;;;;;;;;5053121;28;20028;-84
2021/09/05 14:11:04;;;;;;;18.58;8.25;;;;;;;;;;5055135;28;20433;-84
2021/09/05 14:13:29;;;;;;;14.60;7.68;;;;;;;;;;5055072;28;20491;-84